Hlavní strana
METAR-TAF:

METAR-TAF

Letiště :

Greenville Downtown Airport

Greenville, Jižní Karolína, Spojené státy americké

zeměpisná šířka: 34-50-46N, zeměpisná délka: 082-20-46W, výška: 319 m

Aktuální stav počasí

Zpráva byla vytvořena před 21 minutami, v 04:53 UTC
Jihozápadní vítr 4 kt
Teplota 23°C
Vlhkost vzduchu 94%
Tlak 1016 hPa
Viditelnost: 16.1 km
Skoro jasno ve výšce 700 ft
Zataženo ve výšce 8000 ft

METAR: KGMU 220453Z AUTO 23004KT 10SM FEW007 OVC080 23/22 A3000 RMK AO2 SLP148 T02330222 403060233

Čas: 01:14 (05:14 UTC)

Předpověď počasí

Zpráva byla vytvořena před 1 hodinou a 10 minutami, v 04:04 UTC
Předpověď platná od 22 v 04 UTC do 22 v 24 UTC
Jihojihozápadní vítr 4 kt
Viditelnost: 10 km
Zataženo ve výšce 700 ft
Od 22 v 1400 UTC
Západní vítr 4 kt
Viditelnost: 10 km
Skoro jasno ve výšce 25000 ft
Od 22 v 1700 UTC
Severozápadní vítr 6 kt
Viditelnost: 10 km
Polojasno ve výšce 6000 ft

TAF: KGMU 220404Z 2204/2224 21004KT P6SM OVC007 FM221400 28004KT P6SM FEW250 FM221700 31006KT P6SM SCT060

Stav a předpovědi počasí z více než 4 000 letišť (zprávy METAR a TAF).

Červené a žluté tečky na mapě představují dostupné meteorologické stanice.

Když kurzor umístíte na tečku, zobrazí se název stanice.

Pak kliknutím zobrazíte stav a předpověď počasí.

Chcete-li změnit mapu, kliknutím na zelené tlačítko se znaménkem +mapu přiblížíte, kliknutím na zelené tlačítko se znaménkem – mapu oddálíte a kliknutím na zelené šipky přejdete na sousední mapy.


METAR-TAF: